Hlavní strana
METAR-TAF:

METAR-TAF

Letiště :

Letiště Adolfa Suáreze

Madrid, Španělsko

zeměpisná šířka: 40-27N, zeměpisná délka: 003-33W, výška: 609 m

Aktuální stav počasí

Zpráva byla vytvořena před 48 minutami, v 22:30 UTC
Východní vítr 3 kt, proměnlivý mezi severovýchodním a jihovýchodním
Teplota 15°C
Vlhkost vzduchu 51%
Tlak 1017 hPa
Viditelnost 10 km a více
Žádná oblačnost pod 1500 m, nevyskytují se cumulonimby.

METAR: LEMD 162230Z 09003KT 040V130 CAVOK 15/05 Q1017 NOSIG

Čas: 01:18 (23:18 UTC)

Předpověď počasí

Zpráva byla vytvořena před 6 hodinami a 18 minutami, v 17:00 UTC
Předpověď platná od 16 v 18 UTC do 17 v 24 UTC
Severovýchodní vítr 10 kt
Viditelnost 10 km a více
Žádná oblačnost pod 1500 m, nevyskytují se cumulonimby.

TAF: LEMD 161700Z 1618/1724 04010KT CAVOK TX21/1715Z TN08/1706Z

Stav a předpovědi počasí z více než 4 000 letišť (zprávy METAR a TAF).

Červené a žluté tečky na mapě představují dostupné meteorologické stanice.

Když kurzor umístíte na tečku, zobrazí se název stanice.

Pak kliknutím zobrazíte stav a předpověď počasí.

Chcete-li změnit mapu, kliknutím na zelené tlačítko se znaménkem +mapu přiblížíte, kliknutím na zelené tlačítko se znaménkem – mapu oddálíte a kliknutím na zelené šipky přejdete na sousední mapy.


METAR-TAF: